Time;durP1;ratioP1;P1;durP2;ratioP2;P2;SDS_P1;SDS_P2;PMS_P1;PMS_P2;Temp;Humidity;BMP_temperature;BMP_pressure;BME280_temperature;BME280_humidity;BME280_pressure;Samples;Min_cycle;Max_cycle;Signal;HPM_P1;HPM_P2
2022/03/30 00:00:28;;;;;;;20.70;11.73;;;;;;;;;;5087895;28;20194;-71
2022/03/30 00:02:54;;;;;;;15.50;11.03;;;;;;;;;;5084054;28;20176;-71
2022/03/30 00:05:19;;;;;;;19.07;11.70;;;;;;;;;;5084557;28;20217;-71
2022/03/30 00:07:45;;;;;;;17.77;11.10;;;;;;;;;;5091281;28;20181;-71
2022/03/30 00:10:11;;;;;;;15.97;10.23;;;;;;;;;;5091548;28;20199;-71
2022/03/30 00:12:36;;;;;;;20.30;10.50;;;;;;;;;;5095613;28;20192;-71
2022/03/30 00:15:02;;;;;;;14.60;9.10;;;;;;;;;;5091864;28;20229;-71
2022/03/30 00:17:27;;;;;;;16.97;9.73;;;;;;;;;;5081442;28;20202;-71
2022/03/30 00:19:52;;;;;;;15.93;10.53;;;;;;;;;;5080822;28;20205;-71
2022/03/30 00:22:17;;;;;;;21.93;10.97;;;;;;;;;;5085504;28;20182;-71
2022/03/30 00:24:46;;;;;;;18.33;9.77;;;;;;;;;;5087390;28;20205;-71
2022/03/30 00:27:11;;;;;;;18.30;10.63;;;;;;;;;;5089660;28;20179;-71
2022/03/30 00:29:36;;;;;;;17.77;10.77;;;;;;;;;;5083943;28;20183;-71
2022/03/30 00:32:02;;;;;;;16.20;9.73;;;;;;;;;;5083075;28;20176;-71
2022/03/30 00:34:27;;;;;;;21.73;11.63;;;;;;;;;;5086255;28;20179;-71
2022/03/30 00:36:52;;;;;;;16.63;9.30;;;;;;;;;;5090227;28;20202;-71
2022/03/30 00:39:18;;;;;;;18.63;10.47;;;;;;;;;;5090123;28;20180;-71
2022/03/30 00:41:43;;;;;;;16.83;11.17;;;;;;;;;;5087883;28;20167;-71
2022/03/30 00:44:10;;;;;;;21.60;10.93;;;;;;;;;;5085906;28;20183;-71
2022/03/30 00:46:35;;;;;;;20.47;11.27;;;;;;;;;;5084608;28;20175;-71
2022/03/30 00:49:01;;;;;;;15.80;9.60;;;;;;;;;;5086577;28;20186;-71
2022/03/30 00:51:26;;;;;;;15.00;9.90;;;;;;;;;;5083903;28;20187;-71
2022/03/30 00:53:51;;;;;;;21.67;11.77;;;;;;;;;;5083076;28;20180;-71
2022/03/30 00:56:17;;;;;;;18.27;11.97;;;;;;;;;;5086449;28;20174;-71
2022/03/30 00:58:42;;;;;;;19.87;11.27;;;;;;;;;;5085611;28;20191;-71
2022/03/30 01:01:07;;;;;;;19.23;11.37;;;;;;;;;;5079832;28;20173;-71
2022/03/30 01:03:32;;;;;;;17.23;11.23;;;;;;;;;;5083871;28;20177;-71
2022/03/30 01:05:58;;;;;;;18.03;11.67;;;;;;;;;;5077698;28;20484;-71
2022/03/30 01:08:23;;;;;;;21.17;11.73;;;;;;;;;;5084516;28;20182;-71
2022/03/30 01:10:48;;;;;;;21.80;11.07;;;;;;;;;;5087513;28;20176;-71
2022/03/30 01:13:14;;;;;;;17.77;10.47;;;;;;;;;;5086098;28;20292;-71
2022/03/30 01:15:39;;;;;;;20.50;11.27;;;;;;;;;;5091056;28;20180;-71
2022/03/30 01:18:05;;;;;;;17.10;11.20;;;;;;;;;;5089282;28;20211;-71
2022/03/30 01:20:31;;;;;;;19.43;11.67;;;;;;;;;;5082857;28;20205;-71
2022/03/30 01:22:56;;;;;;;19.67;10.40;;;;;;;;;;5099822;28;20183;-71
2022/03/30 01:25:21;;;;;;;18.70;11.20;;;;;;;;;;5088989;28;20178;-71
2022/03/30 01:27:47;;;;;;;12.40;9.60;;;;;;;;;;5087764;28;20175;-71
2022/03/30 01:32:58;;;;;;;17.10;12.00;;;;;;;;;;5090947;28;20190;-70
2022/03/30 01:35:23;;;;;;;14.73;10.33;;;;;;;;;;5088853;28;20221;-71
2022/03/30 01:37:49;;;;;;;14.20;9.53;;;;;;;;;;5090893;28;20221;-71
2022/03/30 01:40:14;;;;;;;15.07;10.13;;;;;;;;;;5095141;28;20268;-71
2022/03/30 01:42:39;;;;;;;17.37;10.73;;;;;;;;;;5091823;28;20171;-71
2022/03/30 01:45:04;;;;;;;16.87;10.83;;;;;;;;;;5086624;28;20171;-71
2022/03/30 01:47:30;;;;;;;19.93;10.63;;;;;;;;;;5099834;28;20175;-71
2022/03/30 01:49:55;;;;;;;18.87;12.33;;;;;;;;;;5083981;28;20266;-71
2022/03/30 01:52:21;;;;;;;15.33;10.93;;;;;;;;;;5086837;28;20185;-71
2022/03/30 01:54:46;;;;;;;20.13;12.03;;;;;;;;;;5088535;28;20208;-71
2022/03/30 01:57:14;;;;;;;19.13;11.47;;;;;;;;;;5089121;28;20291;-71
2022/03/30 01:59:40;;;;;;;18.30;11.23;;;;;;;;;;5088885;28;20183;-71
2022/03/30 02:02:06;;;;;;;20.70;12.60;;;;;;;;;;5091486;28;20174;-71
2022/03/30 02:04:31;;;;;;;22.07;13.47;;;;;;;;;;5087220;28;20310;-71
2022/03/30 02:06:57;;;;;;;20.33;10.93;;;;;;;;;;5106534;27;20178;-71
2022/03/30 02:09:22;;;;;;;18.40;11.27;;;;;;;;;;5082427;28;20182;-71
2022/03/30 02:11:48;;;;;;;18.97;11.80;;;;;;;;;;5085571;28;20178;-71
2022/03/30 02:14:13;;;;;;;17.47;11.13;;;;;;;;;;5090375;28;20226;-71
2022/03/30 02:16:38;;;;;;;16.83;11.33;;;;;;;;;;5080395;28;20206;-71
2022/03/30 02:19:03;;;;;;;16.55;10.85;;;;;;;;;;5088860;28;20304;-70
2022/03/30 02:21:28;;;;;;;19.90;12.20;;;;;;;;;;5087832;28;20179;-71
2022/03/30 02:23:53;;;;;;;23.13;12.97;;;;;;;;;;5084320;28;20180;-71
2022/03/30 02:26:19;;;;;;;18.97;11.60;;;;;;;;;;5083664;28;20186;-71
2022/03/30 02:28:51;;;;;;;21.17;12.33;;;;;;;;;;5094882;28;21606;-71
2022/03/30 02:31:18;;;;;;;20.60;12.53;;;;;;;;;;5089013;28;20196;-71
2022/03/30 02:33:44;;;;;;;18.60;11.73;;;;;;;;;;5079269;28;20184;-71
2022/03/30 02:36:09;;;;;;;24.07;12.70;;;;;;;;;;5088358;28;20174;-70
2022/03/30 02:38:34;;;;;;;19.60;10.80;;;;;;;;;;5097273;28;20274;-71
2022/03/30 02:41:01;;;;;;;17.57;9.80;;;;;;;;;;5085145;28;20188;-71
2022/03/30 02:43:26;;;;;;;15.93;10.50;;;;;;;;;;5086972;28;20193;-71
2022/03/30 02:45:51;;;;;;;16.07;10.33;;;;;;;;;;5087126;28;20214;-71
2022/03/30 02:48:19;;;;;;;15.87;9.90;;;;;;;;;;5087568;28;20405;-71
2022/03/30 02:50:49;;;;;;;16.23;11.03;;;;;;;;;;5085205;28;20174;-71
2022/03/30 02:53:16;;;;;;;15.07;10.70;;;;;;;;;;5097553;28;20201;-71
2022/03/30 02:55:42;;;;;;;18.73;10.97;;;;;;;;;;5080241;28;20236;-71
2022/03/30 02:58:09;;;;;;;16.33;11.27;;;;;;;;;;5085874;28;20210;-71
2022/03/30 03:00:35;;;;;;;18.43;11.40;;;;;;;;;;5087580;28;20182;-71
2022/03/30 03:03:01;;;;;;;14.60;10.50;;;;;;;;;;5086752;28;20176;-71
2022/03/30 03:05:31;;;;;;;19.63;10.87;;;;;;;;;;5076244;28;20209;-71
2022/03/30 03:07:57;;;;;;;14.90;10.97;;;;;;;;;;5079284;28;20298;-71
2022/03/30 03:10:22;;;;;;;17.47;10.60;;;;;;;;;;5081162;28;20188;-71
2022/03/30 03:12:47;;;;;;;20.87;12.10;;;;;;;;;;5088360;28;20187;-71
2022/03/30 03:15:13;;;;;;;20.75;11.57;;;;;;;;;;5089038;28;20249;-71
2022/03/30 03:17:38;;;;;;;20.17;12.00;;;;;;;;;;5086655;28;20194;-71
2022/03/30 03:20:03;;;;;;;21.10;12.93;;;;;;;;;;5084014;28;20178;-71
2022/03/30 03:22:28;;;;;;;19.33;12.47;;;;;;;;;;5092498;28;20175;-71
2022/03/30 03:24:54;;;;;;;18.67;12.23;;;;;;;;;;5082763;28;20205;-71
2022/03/30 03:27:19;;;;;;;21.50;11.80;;;;;;;;;;5083436;28;20173;-71
2022/03/30 03:29:44;;;;;;;20.02;12.88;;;;;;;;;;5092943;28;20181;-71
2022/03/30 03:32:09;;;;;;;16.33;11.33;;;;;;;;;;5089333;28;20181;-71
2022/03/30 03:34:34;;;;;;;18.57;11.57;;;;;;;;;;5090454;28;20170;-71
2022/03/30 03:37:00;;;;;;;16.37;11.17;;;;;;;;;;5081443;28;20210;-72
2022/03/30 03:39:25;;;;;;;22.90;13.23;;;;;;;;;;5087655;28;20521;-72
2022/03/30 03:41:50;;;;;;;17.83;12.20;;;;;;;;;;5080871;28;20179;-72
2022/03/30 03:44:15;;;;;;;19.97;11.80;;;;;;;;;;5081735;28;20188;-72
2022/03/30 03:46:40;;;;;;;20.60;13.23;;;;;;;;;;5082935;28;20190;-72
2022/03/30 03:49:05;;;;;;;17.50;11.37;;;;;;;;;;5093203;28;20180;-72
2022/03/30 03:51:31;;;;;;;17.13;12.07;;;;;;;;;;5086555;28;20264;-72
2022/03/30 03:53:56;;;;;;;18.20;11.47;;;;;;;;;;5091654;28;20218;-72
2022/03/30 03:56:21;;;;;;;20.40;12.07;;;;;;;;;;5088680;28;20182;-72
2022/03/30 03:58:49;;;;;;;19.40;11.43;;;;;;;;;;5083377;28;20173;-72
2022/03/30 04:01:14;;;;;;;17.37;12.23;;;;;;;;;;5084199;28;20232;-72
2022/03/30 04:03:39;;;;;;;19.40;11.73;;;;;;;;;;5081909;28;20224;-72
2022/03/30 04:06:04;;;;;;;19.27;11.90;;;;;;;;;;5082832;28;20574;-72
2022/03/30 04:08:29;;;;;;;17.77;11.90;;;;;;;;;;5087366;28;20239;-71
2022/03/30 04:10:55;;;;;;;21.97;11.37;;;;;;;;;;5086238;28;20213;-72
2022/03/30 04:13:20;;;;;;;19.40;11.23;;;;;;;;;;5087940;28;20233;-71
2022/03/30 04:15:45;;;;;;;19.37;10.63;;;;;;;;;;5081852;28;20168;-71
2022/03/30 04:18:10;;;;;;;18.87;11.13;;;;;;;;;;5085299;28;20193;-71
2022/03/30 04:20:36;;;;;;;16.63;10.40;;;;;;;;;;5078061;28;20161;-71
2022/03/30 04:23:01;;;;;;;14.93;10.00;;;;;;;;;;5089002;28;20173;-71
2022/03/30 04:25:27;;;;;;;15.47;10.53;;;;;;;;;;5075767;28;20238;-71
2022/03/30 04:27:52;;;;;;;18.10;10.57;;;;;;;;;;5083583;28;20239;-71
2022/03/30 04:30:18;;;;;;;19.77;10.47;;;;;;;;;;5085725;28;20250;-71
2022/03/30 04:32:44;;;;;;;18.37;10.77;;;;;;;;;;5082589;28;20183;-71
2022/03/30 04:35:11;;;;;;;22.87;10.77;;;;;;;;;;5083493;28;20273;-71
2022/03/30 04:37:36;;;;;;;20.03;10.93;;;;;;;;;;5084173;28;20200;-71
2022/03/30 04:40:02;;;;;;;15.40;8.70;;;;;;;;;;5085051;28;20245;-71
2022/03/30 04:42:27;;;;;;;19.00;10.40;;;;;;;;;;5088004;28;20178;-71
2022/03/30 04:44:53;;;;;;;12.10;9.53;;;;;;;;;;5092376;28;20212;-71
2022/03/30 04:47:18;;;;;;;17.70;9.20;;;;;;;;;;5086418;28;20192;-71
2022/03/30 04:49:43;;;;;;;17.90;9.63;;;;;;;;;;5087530;28;20178;-71
2022/03/30 04:52:09;;;;;;;12.67;8.37;;;;;;;;;;5085645;28;20207;-71
2022/03/30 04:54:34;;;;;;;15.50;9.10;;;;;;;;;;5082020;28;20172;-71
2022/03/30 04:56:59;;;;;;;18.60;8.80;;;;;;;;;;5089625;28;20299;-71
2022/03/30 04:59:25;;;;;;;15.23;8.37;;;;;;;;;;5088863;28;20173;-71
2022/03/30 05:01:50;;;;;;;22.63;9.10;;;;;;;;;;5080879;28;20182;-71
2022/03/30 05:04:15;;;;;;;27.13;9.50;;;;;;;;;;5087792;28;20193;-74
2022/03/30 05:06:40;;;;;;;12.60;7.57;;;;;;;;;;5092409;28;20236;-74
2022/03/30 05:09:05;;;;;;;18.20;8.43;;;;;;;;;;5081647;28;20238;-74
2022/03/30 05:11:31;;;;;;;16.23;8.27;;;;;;;;;;5085229;28;20189;-74
2022/03/30 05:13:56;;;;;;;17.97;11.10;;;;;;;;;;5088190;28;20221;-73
2022/03/30 05:16:21;;;;;;;15.67;7.37;;;;;;;;;;5091030;28;20178;-74
2022/03/30 05:18:47;;;;;;;13.83;8.50;;;;;;;;;;5082493;28;20181;-73
2022/03/30 05:21:12;;;;;;;13.37;8.10;;;;;;;;;;5089255;28;20173;-74
2022/03/30 05:23:37;;;;;;;14.83;8.30;;;;;;;;;;5089145;28;20184;-73
2022/03/30 05:26:05;;;;;;;14.73;8.03;;;;;;;;;;5078772;28;20204;-73
2022/03/30 05:28:31;;;;;;;10.63;7.43;;;;;;;;;;5089916;28;20199;-74
2022/03/30 05:30:56;;;;;;;17.17;7.87;;;;;;;;;;5081410;28;20182;-74
2022/03/30 05:33:21;;;;;;;17.13;9.97;;;;;;;;;;5083729;28;20175;-74
2022/03/30 05:35:48;;;;;;;12.23;7.63;;;;;;;;;;5085260;28;20272;-73
2022/03/30 05:38:13;;;;;;;10.73;7.27;;;;;;;;;;5091359;28;20212;-74
2022/03/30 05:40:38;;;;;;;16.90;8.97;;;;;;;;;;5083246;28;20250;-74
2022/03/30 05:43:04;;;;;;;16.43;6.83;;;;;;;;;;5099551;28;20184;-74
2022/03/30 05:45:29;;;;;;;14.93;7.70;;;;;;;;;;5090867;28;20173;-73
2022/03/30 05:47:54;;;;;;;14.13;7.93;;;;;;;;;;5088500;28;20201;-74
2022/03/30 05:50:21;;;;;;;15.50;8.17;;;;;;;;;;5080993;28;20193;-73
2022/03/30 05:52:47;;;;;;;14.97;7.33;;;;;;;;;;5092831;28;20179;-74
2022/03/30 05:55:14;;;;;;;16.40;9.77;;;;;;;;;;5094109;28;20192;-73
2022/03/30 05:57:40;;;;;;;15.97;8.30;;;;;;;;;;5090237;28;20200;-73
2022/03/30 06:00:07;;;;;;;12.57;7.70;;;;;;;;;;5087048;28;20173;-74
2022/03/30 06:02:32;;;;;;;18.90;7.83;;;;;;;;;;5088633;28;20319;-74
2022/03/30 06:04:58;;;;;;;12.90;7.07;;;;;;;;;;5090261;28;20272;-73
2022/03/30 06:07:23;;;;;;;15.20;9.97;;;;;;;;;;5092560;28;20181;-74
2022/03/30 06:09:48;;;;;;;12.60;8.53;;;;;;;;;;5091168;28;20214;-73
2022/03/30 06:12:14;;;;;;;9.83;7.57;;;;;;;;;;5083498;28;20174;-74
2022/03/30 06:14:39;;;;;;;10.60;7.70;;;;;;;;;;5092445;28;20220;-74
2022/03/30 06:17:05;;;;;;;13.40;7.20;;;;;;;;;;5094043;28;20191;-74
2022/03/30 06:19:33;;;;;;;11.27;7.23;;;;;;;;;;5081508;28;20205;-73
2022/03/30 06:22:05;;;;;;;14.20;7.57;;;;;;;;;;5093897;28;20176;-74
2022/03/30 06:24:30;;;;;;;10.67;6.40;;;;;;;;;;5079693;28;20277;-74
2022/03/30 06:26:56;;;;;;;12.70;7.57;;;;;;;;;;5092587;28;20204;-74
2022/03/30 06:29:21;;;;;;;16.03;6.53;;;;;;;;;;5084907;28;20173;-74
2022/03/30 06:31:46;;;;;;;9.53;7.30;;;;;;;;;;5085432;28;20180;-74
2022/03/30 06:34:11;;;;;;;13.83;8.43;;;;;;;;;;5083666;28;20192;-74
2022/03/30 06:36:39;;;;;;;11.30;6.70;;;;;;;;;;5091731;28;20190;-74
2022/03/30 06:39:05;;;;;;;13.80;7.23;;;;;;;;;;5087795;28;20173;-74
2022/03/30 06:41:30;;;;;;;15.03;6.93;;;;;;;;;;5090045;28;20181;-74
2022/03/30 06:43:56;;;;;;;12.20;8.33;;;;;;;;;;5089473;28;20177;-74
2022/03/30 06:46:22;;;;;;;12.47;6.70;;;;;;;;;;5089113;28;20200;-73
2022/03/30 06:48:47;;;;;;;8.40;6.63;;;;;;;;;;5088865;28;20201;-74
2022/03/30 06:51:13;;;;;;;19.63;12.20;;;;;;;;;;5085937;28;20181;-74
2022/03/30 06:53:38;;;;;;;11.40;6.37;;;;;;;;;;5085625;28;20181;-74
2022/03/30 06:56:03;;;;;;;19.47;9.00;;;;;;;;;;5092486;28;20220;-74
2022/03/30 06:58:28;;;;;;;12.83;7.63;;;;;;;;;;5085423;28;20204;-74
2022/03/30 07:00:54;;;;;;;14.47;7.37;;;;;;;;;;5087167;28;20308;-73
2022/03/30 07:03:22;;;;;;;11.53;7.20;;;;;;;;;;5085466;28;20222;-74
2022/03/30 07:05:47;;;;;;;13.77;7.07;;;;;;;;;;5084764;28;20185;-74
2022/03/30 07:10:59;;;;;;;12.73;7.70;;;;;;;;;;5085349;28;20195;-74
2022/03/30 07:13:24;;;;;;;15.27;9.03;;;;;;;;;;5088922;28;20224;-74
2022/03/30 07:15:49;;;;;;;12.87;7.73;;;;;;;;;;5093812;28;20184;-73
2022/03/30 07:18:15;;;;;;;16.57;8.37;;;;;;;;;;5085248;28;20303;-74
2022/03/30 07:20:40;;;;;;;13.20;8.47;;;;;;;;;;5085705;28;20184;-74
2022/03/30 07:23:06;;;;;;;12.17;7.33;;;;;;;;;;5086112;28;20264;-73
2022/03/30 07:25:31;;;;;;;15.00;9.67;;;;;;;;;;5086064;28;20173;-74
2022/03/30 07:27:58;;;;;;;17.07;8.07;;;;;;;;;;5089241;28;20177;-74
2022/03/30 07:30:24;;;;;;;13.77;7.20;;;;;;;;;;5087683;28;20268;-74
2022/03/30 07:32:50;;;;;;;13.27;6.80;;;;;;;;;;5085470;28;20188;-74
2022/03/30 07:35:16;;;;;;;14.03;7.50;;;;;;;;;;5083972;28;20353;-73
2022/03/30 07:37:42;;;;;;;12.43;7.43;;;;;;;;;;5092175;28;20548;-73
2022/03/30 07:40:08;;;;;;;12.20;7.30;;;;;;;;;;5086129;28;20181;-73
2022/03/30 07:42:33;;;;;;;14.67;7.83;;;;;;;;;;5088070;28;20175;-73
2022/03/30 07:44:58;;;;;;;8.77;6.50;;;;;;;;;;5083964;28;20318;-73
2022/03/30 07:47:25;;;;;;;12.67;6.73;;;;;;;;;;5082478;28;20177;-73
2022/03/30 07:49:50;;;;;;;10.27;7.70;;;;;;;;;;5084408;28;20259;-74
2022/03/30 07:52:16;;;;;;;10.40;7.27;;;;;;;;;;5084544;28;20199;-73
2022/03/30 07:54:41;;;;;;;11.67;6.23;;;;;;;;;;5090237;28;20181;-73
2022/03/30 07:57:07;;;;;;;9.73;6.43;;;;;;;;;;5083198;28;20211;-73
2022/03/30 07:59:32;;;;;;;11.50;6.37;;;;;;;;;;5093563;28;20233;-73
2022/03/30 08:01:58;;;;;;;10.37;6.97;;;;;;;;;;5093842;28;20270;-73
2022/03/30 08:04:23;;;;;;;10.93;6.40;;;;;;;;;;5091261;28;20288;-73
2022/03/30 08:06:48;;;;;;;13.37;6.63;;;;;;;;;;5088029;28;20297;-74
2022/03/30 08:09:14;;;;;;;13.13;8.63;;;;;;;;;;5080943;28;20267;-74
2022/03/30 08:11:39;;;;;;;8.37;6.90;;;;;;;;;;5082313;28;20217;-74
2022/03/30 08:14:04;;;;;;;9.70;6.73;;;;;;;;;;5080644;28;20239;-73
2022/03/30 08:16:32;;;;;;;11.10;8.13;;;;;;;;;;5081310;28;20291;-73
2022/03/30 08:18:57;;;;;;;10.27;6.67;;;;;;;;;;5097367;28;20265;-73
2022/03/30 08:24:07;;;;;;;11.10;6.23;;;;;;;;;;5087885;28;20251;-73
2022/03/30 08:26:33;;;;;;;9.73;6.17;;;;;;;;;;5088564;28;20181;-73
2022/03/30 08:28:58;;;;;;;10.00;6.70;;;;;;;;;;5084057;28;20199;-73
2022/03/30 08:31:23;;;;;;;9.23;5.57;;;;;;;;;;5087097;28;20241;-74
2022/03/30 08:33:49;;;;;;;14.67;6.40;;;;;;;;;;5091166;28;20260;-73
2022/03/30 08:36:14;;;;;;;12.47;6.50;;;;;;;;;;5092367;28;20170;-73
2022/03/30 08:38:39;;;;;;;9.43;6.60;;;;;;;;;;5086811;28;20197;-73
2022/03/30 08:41:05;;;;;;;9.50;6.20;;;;;;;;;;5092038;28;20176;-74
2022/03/30 08:43:30;;;;;;;9.33;6.20;;;;;;;;;;5091344;28;20174;-73
2022/03/30 08:45:58;;;;;;;10.33;7.10;;;;;;;;;;5093050;28;20231;-73
2022/03/30 08:48:23;;;;;;;8.43;5.60;;;;;;;;;;5090243;28;20177;-73
2022/03/30 08:50:49;;;;;;;11.00;6.57;;;;;;;;;;5080831;28;20186;-73
2022/03/30 08:53:15;;;;;;;7.83;5.97;;;;;;;;;;5089077;28;20264;-73
2022/03/30 08:55:40;;;;;;;9.77;6.20;;;;;;;;;;5088289;28;20272;-74
2022/03/30 08:58:06;;;;;;;10.17;5.83;;;;;;;;;;5086270;28;20288;-74
2022/03/30 09:00:34;;;;;;;11.97;6.27;;;;;;;;;;5090116;28;20251;-73
2022/03/30 09:03:00;;;;;;;8.60;5.67;;;;;;;;;;5084972;28;20177;-74
2022/03/30 09:05:33;;;;;;;10.53;6.13;;;;;;;;;;5086664;28;20204;-73
2022/03/30 09:08:07;;;;;;;8.87;6.20;;;;;;;;;;5093217;28;20259;-73
2022/03/30 09:10:32;;;;;;;9.97;6.23;;;;;;;;;;5083892;28;20204;-73
2022/03/30 09:12:58;;;;;;;10.73;6.70;;;;;;;;;;5091293;28;20204;-73
2022/03/30 09:15:23;;;;;;;11.40;6.57;;;;;;;;;;5088392;28;20192;-74
2022/03/30 09:17:49;;;;;;;15.57;9.43;;;;;;;;;;5093999;28;20282;-74
2022/03/30 09:20:20;;;;;;;11.00;6.20;;;;;;;;;;5096106;28;20256;-73
2022/03/30 09:22:46;;;;;;;9.43;6.37;;;;;;;;;;5086960;28;20165;-73
2022/03/30 09:25:12;;;;;;;8.53;6.20;;;;;;;;;;5086403;28;20267;-73
2022/03/30 09:27:41;;;;;;;11.37;6.70;;;;;;;;;;5090105;28;20169;-73
2022/03/30 09:30:06;;;;;;;8.93;8.03;;;;;;;;;;5090224;28;20180;-73
2022/03/30 09:32:32;;;;;;;9.93;6.40;;;;;;;;;;5088377;28;20182;-73
2022/03/30 09:34:57;;;;;;;11.40;6.00;;;;;;;;;;5080019;28;20177;-73
2022/03/30 09:37:23;;;;;;;14.27;7.90;;;;;;;;;;5086187;28;20314;-74
2022/03/30 09:39:49;;;;;;;12.37;8.20;;;;;;;;;;5088021;28;20173;-74
2022/03/30 09:42:16;;;;;;;11.30;7.07;;;;;;;;;;5086193;28;20174;-73
2022/03/30 09:44:49;;;;;;;10.87;6.63;;;;;;;;;;5089392;28;20236;-73
2022/03/30 09:47:14;;;;;;;11.53;7.20;;;;;;;;;;5086468;28;20299;-73
2022/03/30 09:49:43;;;;;;;10.27;6.67;;;;;;;;;;5089252;28;20248;-73
2022/03/30 09:52:12;;;;;;;12.23;7.97;;;;;;;;;;5087947;28;20414;-73
2022/03/30 09:54:37;;;;;;;15.10;9.53;;;;;;;;;;5086114;28;20222;-73
2022/03/30 09:57:07;;;;;;;23.17;13.30;;;;;;;;;;5087878;28;20193;-73
2022/03/30 09:59:52;;;;;;;15.33;11.60;;;;;;;;;;5084581;28;20177;-74
2022/03/30 10:02:18;;;;;;;12.47;8.03;;;;;;;;;;5105571;27;20193;-74
2022/03/30 10:04:44;;;;;;;10.50;8.87;;;;;;;;;;5089923;28;20189;-74
2022/03/30 10:07:09;;;;;;;18.73;12.33;;;;;;;;;;5089055;28;20184;-73
2022/03/30 10:09:37;;;;;;;14.30;11.93;;;;;;;;;;5084873;28;20180;-73
2022/03/30 10:12:03;;;;;;;19.50;13.10;;;;;;;;;;5082809;28;20185;-73
2022/03/30 10:14:28;;;;;;;13.57;11.33;;;;;;;;;;5088546;28;20224;-73
2022/03/30 10:16:53;;;;;;;18.47;12.67;;;;;;;;;;5084258;28;20208;-73
2022/03/30 10:19:19;;;;;;;14.20;10.63;;;;;;;;;;5088499;28;20185;-73
2022/03/30 10:21:54;;;;;;;18.57;11.80;;;;;;;;;;5095375;28;20168;-73
2022/03/30 10:24:36;;;;;;;21.07;13.10;;;;;;;;;;5090653;28;20204;-73
2022/03/30 10:27:17;;;;;;;19.27;13.70;;;;;;;;;;5091535;28;20359;-73
2022/03/30 10:29:50;;;;;;;19.30;13.03;;;;;;;;;;5082640;28;20181;-73
2022/03/30 10:32:20;;;;;;;21.83;14.87;;;;;;;;;;5090738;28;20311;-74
2022/03/30 10:34:50;;;;;;;19.90;12.87;;;;;;;;;;5087613;28;20225;-74
2022/03/30 10:37:22;;;;;;;17.20;12.00;;;;;;;;;;5089023;28;20185;-73
2022/03/30 10:39:55;;;;;;;18.20;13.63;;;;;;;;;;5094964;28;20167;-74
2022/03/30 10:42:20;;;;;;;18.20;13.27;;;;;;;;;;5088858;28;20264;-74
2022/03/30 10:44:46;;;;;;;20.67;13.67;;;;;;;;;;5094046;28;20534;-73
2022/03/30 10:47:19;;;;;;;18.73;14.10;;;;;;;;;;5080609;28;20214;-73
2022/03/30 10:49:47;;;;;;;17.03;13.23;;;;;;;;;;5085905;28;20172;-73
2022/03/30 10:52:32;;;;;;;21.20;14.63;;;;;;;;;;5089376;28;20184;-74
2022/03/30 10:55:12;;;;;;;18.63;14.23;;;;;;;;;;5080217;28;20177;-74
2022/03/30 10:57:48;;;;;;;20.97;14.67;;;;;;;;;;5083826;28;20215;-73
2022/03/30 11:00:17;;;;;;;17.23;13.17;;;;;;;;;;5084832;28;20180;-74
2022/03/30 11:02:43;;;;;;;17.67;11.77;;;;;;;;;;5087638;28;20206;-74
2022/03/30 11:05:12;;;;;;;19.23;13.20;;;;;;;;;;5087762;28;20227;-74
2022/03/30 11:07:38;;;;;;;20.43;12.43;;;;;;;;;;5085339;28;20172;-74
2022/03/30 11:10:15;;;;;;;23.07;13.60;;;;;;;;;;5083145;28;20246;-74
2022/03/30 11:12:59;;;;;;;21.47;13.33;;;;;;;;;;5093079;28;20199;-74
2022/03/30 11:15:24;;;;;;;21.27;14.00;;;;;;;;;;5087576;28;20224;-74
2022/03/30 11:17:49;;;;;;;20.10;13.70;;;;;;;;;;5089384;28;20227;-74
2022/03/30 11:20:19;;;;;;;22.27;14.83;;;;;;;;;;5082644;28;20172;-74
2022/03/30 11:22:46;;;;;;;26.80;16.93;;;;;;;;;;5083427;28;20196;-73
2022/03/30 11:25:23;;;;;;;21.43;16.77;;;;;;;;;;5085131;28;20184;-73
2022/03/30 11:27:57;;;;;;;23.47;14.87;;;;;;;;;;5085923;28;20172;-75
2022/03/30 11:30:23;;;;;;;17.17;14.70;;;;;;;;;;5088082;28;20183;-73
2022/03/30 11:32:52;;;;;;;20.07;15.27;;;;;;;;;;5080993;28;20268;-73
2022/03/30 11:35:18;;;;;;;19.00;13.67;;;;;;;;;;5086897;28;20181;-73
2022/03/30 11:38:00;;;;;;;9.90;7.10;;;;;;;;;;5080981;28;20208;-73
2022/03/30 11:40:26;;;;;;;5.60;3.77;;;;;;;;;;5088997;28;20180;-73
2022/03/30 11:42:52;;;;;;;3.37;2.97;;;;;;;;;;5085596;28;20177;-73
2022/03/30 11:45:21;;;;;;;3.13;2.70;;;;;;;;;;5086208;28;20180;-72
2022/03/30 11:47:48;;;;;;;3.07;2.73;;;;;;;;;;5082729;28;20181;-73
2022/03/30 11:50:15;;;;;;;2.70;2.50;;;;;;;;;;5087381;28;20181;-73
2022/03/30 11:52:42;;;;;;;3.93;2.00;;;;;;;;;;5081672;28;20197;-73
2022/03/30 11:55:08;;;;;;;2.17;1.97;;;;;;;;;;5084465;28;20172;-73
2022/03/30 11:57:37;;;;;;;2.13;1.93;;;;;;;;;;5088597;28;20197;-73
2022/03/30 12:00:05;;;;;;;2.10;1.83;;;;;;;;;;5086494;28;20183;-73
2022/03/30 12:02:30;;;;;;;2.00;1.80;;;;;;;;;;5083395;28;20204;-73
2022/03/30 12:04:56;;;;;;;2.78;2.28;;;;;;;;;;5087824;28;20243;-73
2022/03/30 12:07:22;;;;;;;2.67;2.03;;;;;;;;;;5082123;28;20180;-74
2022/03/30 12:09:53;;;;;;;2.50;2.27;;;;;;;;;;5087197;28;20208;-73
2022/03/30 12:12:37;;;;;;;12.47;3.03;;;;;;;;;;5097220;28;20189;-73
2022/03/30 12:15:05;;;;;;;3.83;2.20;;;;;;;;;;5089153;28;20224;-73
2022/03/30 12:17:31;;;;;;;5.03;1.97;;;;;;;;;;5092384;28;20197;-73
2022/03/30 12:19:56;;;;;;;5.57;2.70;;;;;;;;;;5082970;28;20184;-73
2022/03/30 12:22:22;;;;;;;4.70;2.70;;;;;;;;;;5087557;28;20229;-73
2022/03/30 12:24:47;;;;;;;24.60;3.87;;;;;;;;;;5086304;28;20176;-73
2022/03/30 12:27:13;;;;;;;3.83;1.80;;;;;;;;;;5090493;28;20172;-75
2022/03/30 12:29:38;;;;;;;2.83;2.60;;;;;;;;;;5098647;28;20180;-75
2022/03/30 12:32:04;;;;;;;6.23;2.60;;;;;;;;;;5085885;28;20181;-75
2022/03/30 12:34:31;;;;;;;3.27;2.97;;;;;;;;;;5082418;28;20184;-75
2022/03/30 12:37:01;;;;;;;2.87;2.50;;;;;;;;;;5088267;28;20201;-75
2022/03/30 12:39:34;;;;;;;6.53;6.03;;;;;;;;;;5089997;28;20169;-75
2022/03/30 12:41:59;;;;;;;3.80;3.40;;;;;;;;;;5086936;28;20198;-75
2022/03/30 12:44:26;;;;;;;3.90;3.47;;;;;;;;;;5081460;28;20200;-73
2022/03/30 12:46:52;;;;;;;4.23;3.23;;;;;;;;;;5084742;28;20173;-72
2022/03/30 12:49:18;;;;;;;8.13;7.43;;;;;;;;;;5080509;28;20184;-72
2022/03/30 12:51:43;;;;;;;5.07;4.67;;;;;;;;;;5086487;28;20307;-72
2022/03/30 12:54:21;;;;;;;4.07;3.67;;;;;;;;;;5076569;28;20237;-72
2022/03/30 12:56:46;;;;;;;5.13;3.83;;;;;;;;;;5085122;28;20179;-72
2022/03/30 12:59:17;;;;;;;5.03;3.90;;;;;;;;;;5090080;28;20179;-72
2022/03/30 13:01:45;;;;;;;4.93;4.10;;;;;;;;;;5091620;28;20174;-72
2022/03/30 13:04:20;;;;;;;5.67;4.40;;;;;;;;;;5082887;28;20204;-72
2022/03/30 13:07:05;;;;;;;4.90;4.37;;;;;;;;;;5076381;28;20177;-72
2022/03/30 13:09:30;;;;;;;3.87;3.47;;;;;;;;;;5078121;28;20222;-72
2022/03/30 13:11:57;;;;;;;3.80;3.40;;;;;;;;;;5081871;28;20169;-72
2022/03/30 13:14:22;;;;;;;3.43;3.13;;;;;;;;;;5085694;28;20247;-72
2022/03/30 13:16:55;;;;;;;3.87;3.57;;;;;;;;;;5080820;28;20184;-72
2022/03/30 13:19:24;;;;;;;4.40;4.00;;;;;;;;;;5083438;28;20182;-72
2022/03/30 13:21:50;;;;;;;6.93;6.30;;;;;;;;;;5088590;28;20173;-72
2022/03/30 13:24:16;;;;;;;4.83;4.33;;;;;;;;;;5090061;28;20242;-73
2022/03/30 13:26:43;;;;;;;4.60;4.13;;;;;;;;;;5088879;28;20350;-72
2022/03/30 13:29:09;;;;;;;11.80;10.80;;;;;;;;;;5086846;28;20193;-72
2022/03/30 13:31:42;;;;;;;4.60;4.20;;;;;;;;;;5082050;28;20180;-72
2022/03/30 13:34:08;;;;;;;5.53;4.17;;;;;;;;;;5083165;28;20226;-72
2022/03/30 13:36:35;;;;;;;4.57;3.50;;;;;;;;;;5086277;28;20437;-72
2022/03/30 13:39:00;;;;;;;3.60;2.97;;;;;;;;;;5101003;28;20292;-72
2022/03/30 13:41:25;;;;;;;5.00;3.80;;;;;;;;;;5085941;28;20173;-72
2022/03/30 13:43:50;;;;;;;3.77;3.47;;;;;;;;;;5085525;28;20173;-72
2022/03/30 13:46:16;;;;;;;4.23;3.83;;;;;;;;;;5082817;28;20169;-72
2022/03/30 13:48:42;;;;;;;6.87;5.80;;;;;;;;;;5087381;28;20189;-72
2022/03/30 13:51:07;;;;;;;5.27;3.57;;;;;;;;;;5081663;28;20193;-72
2022/03/30 13:53:34;;;;;;;3.83;3.43;;;;;;;;;;5087269;28;20190;-72
2022/03/30 13:55:59;;;;;;;5.03;3.40;;;;;;;;;;5085200;28;20247;-72
2022/03/30 13:58:25;;;;;;;4.90;4.40;;;;;;;;;;5079439;28;20218;-72
2022/03/30 14:00:51;;;;;;;4.60;3.90;;;;;;;;;;5081941;28;20196;-73
2022/03/30 14:03:19;;;;;;;7.57;4.50;;;;;;;;;;5081647;28;20177;-72
2022/03/30 14:05:44;;;;;;;4.40;3.93;;;;;;;;;;5084911;28;20184;-72
2022/03/30 14:08:10;;;;;;;5.53;4.13;;;;;;;;;;5085945;28;20271;-72
2022/03/30 14:10:35;;;;;;;4.57;4.13;;;;;;;;;;5082666;28;20185;-72
2022/03/30 14:13:00;;;;;;;5.20;4.10;;;;;;;;;;5087868;28;20182;-73
2022/03/30 14:15:25;;;;;;;5.63;3.97;;;;;;;;;;5088932;28;20176;-72
2022/03/30 14:17:51;;;;;;;5.43;4.07;;;;;;;;;;5090986;28;20193;-72
2022/03/30 14:20:16;;;;;;;8.50;6.07;;;;;;;;;;5087332;28;20223;-72
2022/03/30 14:22:43;;;;;;;6.90;6.20;;;;;;;;;;5088966;28;20252;-72
2022/03/30 14:25:09;;;;;;;5.13;4.50;;;;;;;;;;5088010;28;20283;-72
2022/03/30 14:27:35;;;;;;;7.63;5.43;;;;;;;;;;5088950;28;20234;-72
2022/03/30 14:30:00;;;;;;;6.87;5.97;;;;;;;;;;5086992;28;20196;-72
2022/03/30 14:32:25;;;;;;;8.80;8.00;;;;;;;;;;5088481;28;20223;-72